sensor_id;sensor_type;location;lat;lon;timestamp;temperature;humidity
13464;DHT22;6804;48.774;9.174;2023-09-12T00:00:31;23.00;99.90
13464;DHT22;6804;48.774;9.174;2023-09-12T00:02:59;23.10;99.90
13464;DHT22;6804;48.774;9.174;2023-09-12T00:05:27;23.10;99.90
13464;DHT22;6804;48.774;9.174;2023-09-12T00:07:56;23.10;99.90
13464;DHT22;6804;48.774;9.174;2023-09-12T00:10:23;23.10;99.90
13464;DHT22;6804;48.774;9.174;2023-09-12T00:12:54;23.00;99.90
13464;DHT22;6804;48.774;9.174;2023-09-12T00:15:27;22.90;99.90
13464;DHT22;6804;48.774;9.174;2023-09-12T00:17:58;22.80;99.90
13464;DHT22;6804;48.774;9.174;2023-09-12T00:20:25;22.80;99.90
13464;DHT22;6804;48.774;9.174;2023-09-12T00:22:57;22.80;99.90
13464;DHT22;6804;48.774;9.174;2023-09-12T00:25:25;22.80;99.90
13464;DHT22;6804;48.774;9.174;2023-09-12T00:27:55;22.70;99.90
13464;DHT22;6804;48.774;9.174;2023-09-12T00:30:23;22.70;99.90
13464;DHT22;6804;48.774;9.174;2023-09-12T00:32:58;22.60;99.90
13464;DHT22;6804;48.774;9.174;2023-09-12T00:35:25;22.60;99.90
13464;DHT22;6804;48.774;9.174;2023-09-12T00:37:57;22.60;99.90
13464;DHT22;6804;48.774;9.174;2023-09-12T00:40:25;22.60;99.90
13464;DHT22;6804;48.774;9.174;2023-09-12T00:42:52;22.60;99.90
13464;DHT22;6804;48.774;9.174;2023-09-12T00:45:26;22.60;99.90
13464;DHT22;6804;48.774;9.174;2023-09-12T00:47:57;22.60;99.90
13464;DHT22;6804;48.774;9.174;2023-09-12T00:50:26;22.60;99.90
13464;DHT22;6804;48.774;9.174;2023-09-12T00:52:54;22.60;99.90
13464;DHT22;6804;48.774;9.174;2023-09-12T00:55:29;22.60;99.90
13464;DHT22;6804;48.774;9.174;2023-09-12T00:57:58;22.60;99.90
13464;DHT22;6804;48.774;9.174;2023-09-12T01:00:26;22.50;99.90
13464;DHT22;6804;48.774;9.174;2023-09-12T01:02:54;22.50;99.90
13464;DHT22;6804;48.774;9.174;2023-09-12T01:05:24;22.50;99.90
13464;DHT22;6804;48.774;9.174;2023-09-12T01:07:55;22.50;99.90
13464;DHT22;6804;48.774;9.174;2023-09-12T01:10:27;22.40;99.90
13464;DHT22;6804;48.774;9.174;2023-09-12T01:13:15;22.40;99.90
13464;DHT22;6804;48.774;9.174;2023-09-12T01:15:45;22.30;99.90
13464;DHT22;6804;48.774;9.174;2023-09-12T01:18:13;22.20;99.90
13464;DHT22;6804;48.774;9.174;2023-09-12T01:21:02;22.20;99.90
13464;DHT22;6804;48.774;9.174;2023-09-12T01:23:41;22.10;99.90
13464;DHT22;6804;48.774;9.174;2023-09-12T01:26:29;22.10;99.90
13464;DHT22;6804;48.774;9.174;2023-09-12T01:29:00;22.10;99.90
13464;DHT22;6804;48.774;9.174;2023-09-12T01:31:27;22.10;99.90
13464;DHT22;6804;48.774;9.174;2023-09-12T01:34:08;22.10;99.90
13464;DHT22;6804;48.774;9.174;2023-09-12T01:36:39;22.10;99.90
13464;DHT22;6804;48.774;9.174;2023-09-12T01:39:09;22.10;99.90
13464;DHT22;6804;48.774;9.174;2023-09-12T01:41:40;22.10;99.90
13464;DHT22;6804;48.774;9.174;2023-09-12T01:44:24;22.10;99.90
13464;DHT22;6804;48.774;9.174;2023-09-12T01:46:52;22.10;99.90
13464;DHT22;6804;48.774;9.174;2023-09-12T01:49:23;22.00;99.90
13464;DHT22;6804;48.774;9.174;2023-09-12T01:51:54;22.00;99.90
13464;DHT22;6804;48.774;9.174;2023-09-12T01:54:22;22.00;99.90
13464;DHT22;6804;48.774;9.174;2023-09-12T01:56:59;22.00;99.90
13464;DHT22;6804;48.774;9.174;2023-09-12T01:59:28;22.00;99.90
13464;DHT22;6804;48.774;9.174;2023-09-12T02:01:57;22.00;99.90
13464;DHT22;6804;48.774;9.174;2023-09-12T02:04:28;22.00;99.90
13464;DHT22;6804;48.774;9.174;2023-09-12T02:06:55;21.90;99.90
13464;DHT22;6804;48.774;9.174;2023-09-12T02:09:31;22.00;99.90
13464;DHT22;6804;48.774;9.174;2023-09-12T02:11:59;21.90;99.90
13464;DHT22;6804;48.774;9.174;2023-09-12T02:14:28;22.00;99.90
13464;DHT22;6804;48.774;9.174;2023-09-12T02:16:55;22.00;99.90
13464;DHT22;6804;48.774;9.174;2023-09-12T02:19:24;21.80;99.90
13464;DHT22;6804;48.774;9.174;2023-09-12T02:21:52;21.80;99.90
13464;DHT22;6804;48.774;9.174;2023-09-12T02:24:19;21.80;99.90
13464;DHT22;6804;48.774;9.174;2023-09-12T02:26:47;21.80;99.90
13464;DHT22;6804;48.774;9.174;2023-09-12T02:29:17;21.80;99.90
13464;DHT22;6804;48.774;9.174;2023-09-12T02:31:48;21.80;99.90
13464;DHT22;6804;48.774;9.174;2023-09-12T02:34:16;21.80;99.90
13464;DHT22;6804;48.774;9.174;2023-09-12T02:36:48;21.80;99.90
13464;DHT22;6804;48.774;9.174;2023-09-12T02:39:15;21.70;99.90
13464;DHT22;6804;48.774;9.174;2023-09-12T02:41:43;21.70;99.90
13464;DHT22;6804;48.774;9.174;2023-09-12T02:44:11;21.70;99.90
13464;DHT22;6804;48.774;9.174;2023-09-12T02:46:38;21.70;99.90
13464;DHT22;6804;48.774;9.174;2023-09-12T02:49:07;21.70;99.90
13464;DHT22;6804;48.774;9.174;2023-09-12T02:51:38;21.80;99.90
13464;DHT22;6804;48.774;9.174;2023-09-12T02:54:08;21.80;99.90
13464;DHT22;6804;48.774;9.174;2023-09-12T02:56:36;21.80;99.90
13464;DHT22;6804;48.774;9.174;2023-09-12T02:59:03;21.80;99.90
13464;DHT22;6804;48.774;9.174;2023-09-12T03:01:34;21.80;99.90
13464;DHT22;6804;48.774;9.174;2023-09-12T03:04:03;21.80;99.90
13464;DHT22;6804;48.774;9.174;2023-09-12T03:06:31;21.80;99.90
13464;DHT22;6804;48.774;9.174;2023-09-12T03:08:59;21.80;99.90
13464;DHT22;6804;48.774;9.174;2023-09-12T03:11:28;21.70;99.90
13464;DHT22;6804;48.774;9.174;2023-09-12T03:13:58;21.70;99.90
13464;DHT22;6804;48.774;9.174;2023-09-12T03:16:26;21.70;99.90
13464;DHT22;6804;48.774;9.174;2023-09-12T03:18:56;21.70;99.90
13464;DHT22;6804;48.774;9.174;2023-09-12T03:21:23;21.70;99.90
13464;DHT22;6804;48.774;9.174;2023-09-12T03:23:54;21.60;99.90
13464;DHT22;6804;48.774;9.174;2023-09-12T03:26:22;21.60;99.90
13464;DHT22;6804;48.774;9.174;2023-09-12T03:28:49;21.60;99.90
13464;DHT22;6804;48.774;9.174;2023-09-12T03:31:17;21.50;99.90
13464;DHT22;6804;48.774;9.174;2023-09-12T03:33:45;21.50;99.90
13464;DHT22;6804;48.774;9.174;2023-09-12T03:36:19;21.50;99.90
13464;DHT22;6804;48.774;9.174;2023-09-12T03:38:49;21.50;99.90
13464;DHT22;6804;48.774;9.174;2023-09-12T03:41:22;21.50;99.90
13464;DHT22;6804;48.774;9.174;2023-09-12T03:43:53;21.40;99.90
13464;DHT22;6804;48.774;9.174;2023-09-12T03:46:21;21.40;99.90
13464;DHT22;6804;48.774;9.174;2023-09-12T03:48:52;21.40;99.90
13464;DHT22;6804;48.774;9.174;2023-09-12T03:51:19;21.40;99.90
13464;DHT22;6804;48.774;9.174;2023-09-12T03:53:49;21.50;99.90
13464;DHT22;6804;48.774;9.174;2023-09-12T03:56:20;21.50;99.90
13464;DHT22;6804;48.774;9.174;2023-09-12T03:58:49;21.60;99.90
13464;DHT22;6804;48.774;9.174;2023-09-12T04:01:17;21.60;99.90
13464;DHT22;6804;48.774;9.174;2023-09-12T04:03:45;21.60;99.90
13464;DHT22;6804;48.774;9.174;2023-09-12T04:06:13;21.60;99.90
13464;DHT22;6804;48.774;9.174;2023-09-12T04:08:41;21.60;99.90
13464;DHT22;6804;48.774;9.174;2023-09-12T04:11:12;21.60;99.90
13464;DHT22;6804;48.774;9.174;2023-09-12T04:13:45;21.50;99.90
13464;DHT22;6804;48.774;9.174;2023-09-12T04:16:13;21.50;99.90
13464;DHT22;6804;48.774;9.174;2023-09-12T04:18:41;21.50;99.90
13464;DHT22;6804;48.774;9.174;2023-09-12T04:21:10;21.50;99.90
13464;DHT22;6804;48.774;9.174;2023-09-12T04:23:40;21.50;99.90
13464;DHT22;6804;48.774;9.174;2023-09-12T04:26:12;21.50;99.90
13464;DHT22;6804;48.774;9.174;2023-09-12T04:28:42;21.50;99.90
13464;DHT22;6804;48.774;9.174;2023-09-12T04:31:13;21.50;99.90
13464;DHT22;6804;48.774;9.174;2023-09-12T04:33:43;21.30;99.90
13464;DHT22;6804;48.774;9.174;2023-09-12T04:36:10;21.30;99.90
13464;DHT22;6804;48.774;9.174;2023-09-12T04:38:42;21.30;99.90
13464;DHT22;6804;48.774;9.174;2023-09-12T04:41:12;21.20;99.90
13464;DHT22;6804;48.774;9.174;2023-09-12T04:43:41;21.30;99.90
13464;DHT22;6804;48.774;9.174;2023-09-12T04:46:12;21.30;99.90
13464;DHT22;6804;48.774;9.174;2023-09-12T04:48:42;21.20;99.90
13464;DHT22;6804;48.774;9.174;2023-09-12T04:51:10;21.20;99.90
13464;DHT22;6804;48.774;9.174;2023-09-12T04:53:56;21.20;99.90
13464;DHT22;6804;48.774;9.174;2023-09-12T04:56:24;21.10;99.90
13464;DHT22;6804;48.774;9.174;2023-09-12T04:58:55;21.20;99.90
13464;DHT22;6804;48.774;9.174;2023-09-12T05:01:32;21.20;99.90
13464;DHT22;6804;48.774;9.174;2023-09-12T05:04:00;21.30;99.90
13464;DHT22;6804;48.774;9.174;2023-09-12T05:06:36;21.40;99.90
13464;DHT22;6804;48.774;9.174;2023-09-12T05:09:04;21.50;99.90
13464;DHT22;6804;48.774;9.174;2023-09-12T05:11:35;21.50;99.90
13464;DHT22;6804;48.774;9.174;2023-09-12T05:14:05;21.50;99.90
13464;DHT22;6804;48.774;9.174;2023-09-12T05:16:35;21.50;99.90
13464;DHT22;6804;48.774;9.174;2023-09-12T05:19:24;21.50;99.90
13464;DHT22;6804;48.774;9.174;2023-09-12T05:21:52;21.50;99.90
13464;DHT22;6804;48.774;9.174;2023-09-12T05:24:21;21.40;99.90
13464;DHT22;6804;48.774;9.174;2023-09-12T05:26:48;21.30;99.90
13464;DHT22;6804;48.774;9.174;2023-09-12T05:29:16;21.30;99.90
13464;DHT22;6804;48.774;9.174;2023-09-12T05:32:07;21.40;99.90
13464;DHT22;6804;48.774;9.174;2023-09-12T05:34:35;21.50;99.90
13464;DHT22;6804;48.774;9.174;2023-09-12T05:37:03;21.60;99.90
13464;DHT22;6804;48.774;9.174;2023-09-12T05:39:31;21.70;99.90
13464;DHT22;6804;48.774;9.174;2023-09-12T05:41:59;21.80;99.90
13464;DHT22;6804;48.774;9.174;2023-09-12T05:44:33;21.90;99.90
13464;DHT22;6804;48.774;9.174;2023-09-12T05:47:03;22.00;99.90
13464;DHT22;6804;48.774;9.174;2023-09-12T05:49:35;22.10;99.90
13464;DHT22;6804;48.774;9.174;2023-09-12T05:52:03;22.20;99.90
13464;DHT22;6804;48.774;9.174;2023-09-12T05:54:31;22.30;99.90
13464;DHT22;6804;48.774;9.174;2023-09-12T05:57:08;22.30;99.90
13464;DHT22;6804;48.774;9.174;2023-09-12T05:59:37;22.40;99.90
13464;DHT22;6804;48.774;9.174;2023-09-12T06:02:08;22.50;99.90
13464;DHT22;6804;48.774;9.174;2023-09-12T06:04:45;22.40;99.90
13464;DHT22;6804;48.774;9.174;2023-09-12T06:07:12;22.50;99.90
13464;DHT22;6804;48.774;9.174;2023-09-12T06:09:46;22.40;99.90
13464;DHT22;6804;48.774;9.174;2023-09-12T06:12:14;22.30;99.90
13464;DHT22;6804;48.774;9.174;2023-09-12T06:14:51;22.10;99.90
13464;DHT22;6804;48.774;9.174;2023-09-12T06:17:19;22.10;99.90
13464;DHT22;6804;48.774;9.174;2023-09-12T06:19:49;22.00;99.90
13464;DHT22;6804;48.774;9.174;2023-09-12T06:22:17;22.00;99.90
13464;DHT22;6804;48.774;9.174;2023-09-12T06:24:46;22.10;99.90
13464;DHT22;6804;48.774;9.174;2023-09-12T06:27:15;22.10;99.90
13464;DHT22;6804;48.774;9.174;2023-09-12T06:29:48;22.20;99.90
13464;DHT22;6804;48.774;9.174;2023-09-12T06:32:17;22.30;99.90
13464;DHT22;6804;48.774;9.174;2023-09-12T06:34:46;22.50;99.90
13464;DHT22;6804;48.774;9.174;2023-09-12T06:37:18;22.30;99.90
13464;DHT22;6804;48.774;9.174;2023-09-12T06:39:49;22.30;99.90
13464;DHT22;6804;48.774;9.174;2023-09-12T06:42:21;22.50;99.90
13464;DHT22;6804;48.774;9.174;2023-09-12T06:44:49;22.60;99.90
13464;DHT22;6804;48.774;9.174;2023-09-12T06:47:17;22.60;99.90
13464;DHT22;6804;48.774;9.174;2023-09-12T06:49:46;22.60;99.90
13464;DHT22;6804;48.774;9.174;2023-09-12T06:52:15;22.50;99.90
13464;DHT22;6804;48.774;9.174;2023-09-12T06:54:47;22.50;99.90
13464;DHT22;6804;48.774;9.174;2023-09-12T06:57:18;22.40;99.90
13464;DHT22;6804;48.774;9.174;2023-09-12T06:59:45;22.20;99.90
13464;DHT22;6804;48.774;9.174;2023-09-12T07:02:14;22.20;99.90
13464;DHT22;6804;48.774;9.174;2023-09-12T07:04:42;22.30;99.90
13464;DHT22;6804;48.774;9.174;2023-09-12T07:07:12;22.40;99.90
13464;DHT22;6804;48.774;9.174;2023-09-12T07:09:39;22.50;99.90
13464;DHT22;6804;48.774;9.174;2023-09-12T07:12:08;22.50;99.90
13464;DHT22;6804;48.774;9.174;2023-09-12T07:14:36;22.70;99.90
13464;DHT22;6804;48.774;9.174;2023-09-12T07:17:06;23.00;99.90
13464;DHT22;6804;48.774;9.174;2023-09-12T07:19:34;23.30;99.90
13464;DHT22;6804;48.774;9.174;2023-09-12T07:22:01;23.40;99.90
13464;DHT22;6804;48.774;9.174;2023-09-12T07:24:29;23.60;99.90
13464;DHT22;6804;48.774;9.174;2023-09-12T07:26:57;23.70;99.90
13464;DHT22;6804;48.774;9.174;2023-09-12T07:29:28;23.80;99.90
13464;DHT22;6804;48.774;9.174;2023-09-12T07:31:59;23.80;99.90
13464;DHT22;6804;48.774;9.174;2023-09-12T07:34:29;23.50;99.90
13464;DHT22;6804;48.774;9.174;2023-09-12T07:37:15;23.30;99.90
13464;DHT22;6804;48.774;9.174;2023-09-12T07:39:43;23.30;99.90
13464;DHT22;6804;48.774;9.174;2023-09-12T07:42:12;23.30;99.90
13464;DHT22;6804;48.774;9.174;2023-09-12T07:44:41;23.40;99.90
13464;DHT22;6804;48.774;9.174;2023-09-12T07:47:08;23.60;99.90
13464;DHT22;6804;48.774;9.174;2023-09-12T07:49:39;23.90;99.90
13464;DHT22;6804;48.774;9.174;2023-09-12T07:52:10;24.30;99.90
13464;DHT22;6804;48.774;9.174;2023-09-12T07:54:37;24.70;99.90
13464;DHT22;6804;48.774;9.174;2023-09-12T07:57:05;24.70;99.90
13464;DHT22;6804;48.774;9.174;2023-09-12T07:59:33;24.70;99.90
13464;DHT22;6804;48.774;9.174;2023-09-12T08:02:03;24.80;99.90
13464;DHT22;6804;48.774;9.174;2023-09-12T08:04:31;24.70;99.90
13464;DHT22;6804;48.774;9.174;2023-09-12T08:07:06;24.70;99.90
13464;DHT22;6804;48.774;9.174;2023-09-12T08:09:51;24.80;99.90
13464;DHT22;6804;48.774;9.174;2023-09-12T08:12:20;25.00;99.90
13464;DHT22;6804;48.774;9.174;2023-09-12T08:14:47;25.10;99.90
13464;DHT22;6804;48.774;9.174;2023-09-12T08:17:19;25.20;99.90
13464;DHT22;6804;48.774;9.174;2023-09-12T08:19:47;25.40;99.90
13464;DHT22;6804;48.774;9.174;2023-09-12T08:22:16;25.50;99.90
13464;DHT22;6804;48.774;9.174;2023-09-12T08:24:44;25.80;99.90
13464;DHT22;6804;48.774;9.174;2023-09-12T08:27:22;25.90;99.90
13464;DHT22;6804;48.774;9.174;2023-09-12T08:29:53;26.00;99.90
13464;DHT22;6804;48.774;9.174;2023-09-12T08:32:22;26.00;99.90
13464;DHT22;6804;48.774;9.174;2023-09-12T08:34:50;26.10;99.90
13464;DHT22;6804;48.774;9.174;2023-09-12T08:37:17;26.10;99.90
13464;DHT22;6804;48.774;9.174;2023-09-12T08:39:46;25.80;99.90
13464;DHT22;6804;48.774;9.174;2023-09-12T08:42:18;25.40;99.90
13464;DHT22;6804;48.774;9.174;2023-09-12T08:44:46;25.20;99.90
13464;DHT22;6804;48.774;9.174;2023-09-12T08:47:14;25.40;99.90
13464;DHT22;6804;48.774;9.174;2023-09-12T08:49:48;25.70;99.90
13464;DHT22;6804;48.774;9.174;2023-09-12T08:52:15;25.80;99.90
13464;DHT22;6804;48.774;9.174;2023-09-12T08:54:52;25.80;99.90
13464;DHT22;6804;48.774;9.174;2023-09-12T08:57:22;26.00;99.90
13464;DHT22;6804;48.774;9.174;2023-09-12T08:59:49;26.40;99.90
13464;DHT22;6804;48.774;9.174;2023-09-12T09:02:18;26.60;99.90
13464;DHT22;6804;48.774;9.174;2023-09-12T09:04:50;26.90;99.90
13464;DHT22;6804;48.774;9.174;2023-09-12T09:07:18;27.20;99.90
13464;DHT22;6804;48.774;9.174;2023-09-12T09:09:48;27.50;99.90
13464;DHT22;6804;48.774;9.174;2023-09-12T09:12:19;27.80;99.90
13464;DHT22;6804;48.774;9.174;2023-09-12T09:14:49;28.20;99.90
13464;DHT22;6804;48.774;9.174;2023-09-12T09:17:16;28.50;99.90
13464;DHT22;6804;48.774;9.174;2023-09-12T09:19:50;28.70;99.90
13464;DHT22;6804;48.774;9.174;2023-09-12T09:22:19;29.00;99.90
13464;DHT22;6804;48.774;9.174;2023-09-12T09:24:52;29.00;99.90
13464;DHT22;6804;48.774;9.174;2023-09-12T09:27:40;28.70;99.90
13464;DHT22;6804;48.774;9.174;2023-09-12T09:30:11;28.70;99.90
13464;DHT22;6804;48.774;9.174;2023-09-12T09:32:40;28.80;99.90
13464;DHT22;6804;48.774;9.174;2023-09-12T09:35:13;29.00;99.90
13464;DHT22;6804;48.774;9.174;2023-09-12T09:37:41;28.90;99.90
13464;DHT22;6804;48.774;9.174;2023-09-12T09:40:10;29.00;99.90
13464;DHT22;6804;48.774;9.174;2023-09-12T09:42:38;29.10;99.90
13464;DHT22;6804;48.774;9.174;2023-09-12T09:45:10;29.10;99.90
13464;DHT22;6804;48.774;9.174;2023-09-12T09:47:38;29.10;99.90
13464;DHT22;6804;48.774;9.174;2023-09-12T09:50:14;29.10;99.90
13464;DHT22;6804;48.774;9.174;2023-09-12T09:52:43;29.40;99.90
13464;DHT22;6804;48.774;9.174;2023-09-12T09:55:13;29.70;99.90
13464;DHT22;6804;48.774;9.174;2023-09-12T09:57:42;29.90;99.90
13464;DHT22;6804;48.774;9.174;2023-09-12T10:00:11;30.10;99.90
13464;DHT22;6804;48.774;9.174;2023-09-12T10:02:44;30.30;99.60
13464;DHT22;6804;48.774;9.174;2023-09-12T10:05:15;30.40;99.10
13464;DHT22;6804;48.774;9.174;2023-09-12T10:07:48;30.40;98.60
13464;DHT22;6804;48.774;9.174;2023-09-12T10:10:17;30.40;98.70
13464;DHT22;6804;48.774;9.174;2023-09-12T10:12:50;30.30;99.00
13464;DHT22;6804;48.774;9.174;2023-09-12T10:15:20;30.50;99.30
13464;DHT22;6804;48.774;9.174;2023-09-12T10:17:56;30.60;98.90
13464;DHT22;6804;48.774;9.174;2023-09-12T10:20:33;30.80;98.70
13464;DHT22;6804;48.774;9.174;2023-09-12T10:23:06;30.90;98.00
13464;DHT22;6804;48.774;9.174;2023-09-12T10:25:37;30.80;97.60
13464;DHT22;6804;48.774;9.174;2023-09-12T10:28:05;30.90;97.70
13464;DHT22;6804;48.774;9.174;2023-09-12T10:30:41;31.00;97.70
13464;DHT22;6804;48.774;9.174;2023-09-12T10:33:11;31.10;97.00
13464;DHT22;6804;48.774;9.174;2023-09-12T10:35:41;31.10;97.00
13464;DHT22;6804;48.774;9.174;2023-09-12T10:38:12;31.20;96.80
13464;DHT22;6804;48.774;9.174;2023-09-12T10:40:42;31.30;96.80
13464;DHT22;6804;48.774;9.174;2023-09-12T10:43:28;31.30;96.10
13464;DHT22;6804;48.774;9.174;2023-09-12T10:46:04;31.30;95.70
13464;DHT22;6804;48.774;9.174;2023-09-12T10:48:33;30.90;96.30
13464;DHT22;6804;48.774;9.174;2023-09-12T10:51:03;30.90;96.60
13464;DHT22;6804;48.774;9.174;2023-09-12T10:53:32;31.00;96.10
13464;DHT22;6804;48.774;9.174;2023-09-12T10:56:16;31.20;96.10
13464;DHT22;6804;48.774;9.174;2023-09-12T10:59:09;31.20;95.30
13464;DHT22;6804;48.774;9.174;2023-09-12T11:01:41;31.30;95.20
13464;DHT22;6804;48.774;9.174;2023-09-12T11:04:38;30.90;95.30
13464;DHT22;6804;48.774;9.174;2023-09-12T11:07:44;30.70;95.20
13464;DHT22;6804;48.774;9.174;2023-09-12T11:10:21;30.50;95.60
13464;DHT22;6804;48.774;9.174;2023-09-12T11:12:53;30.80;95.40
13464;DHT22;6804;48.774;9.174;2023-09-12T11:15:27;31.00;94.20
13464;DHT22;6804;48.774;9.174;2023-09-12T11:18:04;31.20;94.10
13464;DHT22;6804;48.774;9.174;2023-09-12T11:20:51;31.20;93.80
13464;DHT22;6804;48.774;9.174;2023-09-12T11:23:26;31.50;93.60
13464;DHT22;6804;48.774;9.174;2023-09-12T11:26:13;31.60;93.20
13464;DHT22;6804;48.774;9.174;2023-09-12T11:28:44;31.60;92.90
13464;DHT22;6804;48.774;9.174;2023-09-12T11:31:11;31.50;93.40
13464;DHT22;6804;48.774;9.174;2023-09-12T11:33:40;31.30;92.60
13464;DHT22;6804;48.774;9.174;2023-09-12T11:36:13;31.50;93.30
13464;DHT22;6804;48.774;9.174;2023-09-12T11:38:42;31.50;92.50
13464;DHT22;6804;48.774;9.174;2023-09-12T11:41:10;31.30;92.60
13464;DHT22;6804;48.774;9.174;2023-09-12T11:43:38;31.10;93.20
13464;DHT22;6804;48.774;9.174;2023-09-12T11:46:10;30.80;93.40
13464;DHT22;6804;48.774;9.174;2023-09-12T11:48:40;30.40;94.10
13464;DHT22;6804;48.774;9.174;2023-09-12T11:51:11;30.20;94.10
13464;DHT22;6804;48.774;9.174;2023-09-12T11:53:38;30.30;94.30
13464;DHT22;6804;48.774;9.174;2023-09-12T11:56:07;30.30;94.20
13464;DHT22;6804;48.774;9.174;2023-09-12T11:58:35;30.40;93.50
13464;DHT22;6804;48.774;9.174;2023-09-12T12:01:03;30.30;93.70
13464;DHT22;6804;48.774;9.174;2023-09-12T12:03:30;30.50;94.20
13464;DHT22;6804;48.774;9.174;2023-09-12T12:06:03;30.80;93.80
13464;DHT22;6804;48.774;9.174;2023-09-12T12:08:33;31.30;93.00
13464;DHT22;6804;48.774;9.174;2023-09-12T12:11:01;31.10;92.70
13464;DHT22;6804;48.774;9.174;2023-09-12T12:13:32;31.10;92.70
13464;DHT22;6804;48.774;9.174;2023-09-12T12:16:13;31.10;92.90
13464;DHT22;6804;48.774;9.174;2023-09-12T12:18:45;31.30;92.70
13464;DHT22;6804;48.774;9.174;2023-09-12T12:21:15;31.70;92.50
13464;DHT22;6804;48.774;9.174;2023-09-12T12:23:45;31.30;91.60
13464;DHT22;6804;48.774;9.174;2023-09-12T12:26:15;31.00;92.50
13464;DHT22;6804;48.774;9.174;2023-09-12T12:28:45;31.10;91.90
13464;DHT22;6804;48.774;9.174;2023-09-12T12:31:14;31.20;91.70
13464;DHT22;6804;48.774;9.174;2023-09-12T12:34:01;31.30;92.00
13464;DHT22;6804;48.774;9.174;2023-09-12T12:36:36;31.50;91.40
13464;DHT22;6804;48.774;9.174;2023-09-12T12:39:11;31.30;91.10
13464;DHT22;6804;48.774;9.174;2023-09-12T12:41:38;31.30;91.30
13464;DHT22;6804;48.774;9.174;2023-09-12T12:44:07;31.50;91.30
13464;DHT22;6804;48.774;9.174;2023-09-12T12:46:48;31.90;91.00
13464;DHT22;6804;48.774;9.174;2023-09-12T12:49:18;32.30;90.40
13464;DHT22;6804;48.774;9.174;2023-09-12T12:51:47;32.60;89.70
13464;DHT22;6804;48.774;9.174;2023-09-12T12:54:15;32.80;87.90
13464;DHT22;6804;48.774;9.174;2023-09-12T12:56:43;32.90;87.00
13464;DHT22;6804;48.774;9.174;2023-09-12T12:59:15;33.00;86.50
13464;DHT22;6804;48.774;9.174;2023-09-12T13:01:47;32.90;85.90
13464;DHT22;6804;48.774;9.174;2023-09-12T13:04:17;33.00;85.80
13464;DHT22;6804;48.774;9.174;2023-09-12T13:06:45;33.00;85.20
13464;DHT22;6804;48.774;9.174;2023-09-12T13:09:13;32.90;84.10
13464;DHT22;6804;48.774;9.174;2023-09-12T13:11:46;33.00;84.50
13464;DHT22;6804;48.774;9.174;2023-09-12T13:14:15;33.00;84.00
13464;DHT22;6804;48.774;9.174;2023-09-12T13:16:45;32.90;83.30
13464;DHT22;6804;48.774;9.174;2023-09-12T13:19:31;32.80;83.60
13464;DHT22;6804;48.774;9.174;2023-09-12T13:21:58;32.60;83.70
13464;DHT22;6804;48.774;9.174;2023-09-12T13:24:26;32.60;84.20
13464;DHT22;6804;48.774;9.174;2023-09-12T13:27:00;32.60;83.70
13464;DHT22;6804;48.774;9.174;2023-09-12T13:29:29;32.70;83.80
13464;DHT22;6804;48.774;9.174;2023-09-12T13:31:57;32.80;83.00
13464;DHT22;6804;48.774;9.174;2023-09-12T13:34:26;32.70;83.20
13464;DHT22;6804;48.774;9.174;2023-09-12T13:36:56;32.80;82.80
13464;DHT22;6804;48.774;9.174;2023-09-12T13:39:24;32.80;82.60
13464;DHT22;6804;48.774;9.174;2023-09-12T13:41:52;32.80;81.50
13464;DHT22;6804;48.774;9.174;2023-09-12T13:44:26;32.80;81.00
13464;DHT22;6804;48.774;9.174;2023-09-12T13:47:00;32.80;80.80
13464;DHT22;6804;48.774;9.174;2023-09-12T13:49:28;32.80;81.40
13464;DHT22;6804;48.774;9.174;2023-09-12T13:51:56;32.90;81.20
13464;DHT22;6804;48.774;9.174;2023-09-12T13:54:24;32.90;81.30
13464;DHT22;6804;48.774;9.174;2023-09-12T13:56:54;33.00;80.80
13464;DHT22;6804;48.774;9.174;2023-09-12T13:59:28;33.00;80.60
13464;DHT22;6804;48.774;9.174;2023-09-12T14:01:58;33.00;81.70
13464;DHT22;6804;48.774;9.174;2023-09-12T14:04:26;33.10;82.00
13464;DHT22;6804;48.774;9.174;2023-09-12T14:06:56;33.00;82.20
13464;DHT22;6804;48.774;9.174;2023-09-12T14:09:25;33.00;82.90
13464;DHT22;6804;48.774;9.174;2023-09-12T14:11:55;33.00;83.80
13464;DHT22;6804;48.774;9.174;2023-09-12T14:14:26;32.90;83.70
13464;DHT22;6804;48.774;9.174;2023-09-12T14:16:53;32.90;83.40
13464;DHT22;6804;48.774;9.174;2023-09-12T14:19:29;32.80;83.50
13464;DHT22;6804;48.774;9.174;2023-09-12T14:22:00;32.80;83.40
13464;DHT22;6804;48.774;9.174;2023-09-12T14:24:28;32.80;83.30
13464;DHT22;6804;48.774;9.174;2023-09-12T14:27:00;32.70;83.50
13464;DHT22;6804;48.774;9.174;2023-09-12T14:29:30;32.60;84.10
13464;DHT22;6804;48.774;9.174;2023-09-12T14:31:58;32.40;84.60
13464;DHT22;6804;48.774;9.174;2023-09-12T14:34:28;32.30;85.10
13464;DHT22;6804;48.774;9.174;2023-09-12T14:36:58;32.00;86.30
13464;DHT22;6804;48.774;9.174;2023-09-12T14:39:26;31.90;87.30
13464;DHT22;6804;48.774;9.174;2023-09-12T14:41:54;31.70;87.70
13464;DHT22;6804;48.774;9.174;2023-09-12T14:44:25;31.60;88.10
13464;DHT22;6804;48.774;9.174;2023-09-12T14:46:54;31.50;88.10
13464;DHT22;6804;48.774;9.174;2023-09-12T14:49:27;31.40;88.30
13464;DHT22;6804;48.774;9.174;2023-09-12T14:52:14;31.20;89.00
13464;DHT22;6804;48.774;9.174;2023-09-12T14:54:45;30.80;89.40
13464;DHT22;6804;48.774;9.174;2023-09-12T14:57:13;30.70;90.10
13464;DHT22;6804;48.774;9.174;2023-09-12T14:59:41;30.70;90.10
13464;DHT22;6804;48.774;9.174;2023-09-12T15:02:09;30.80;90.10
13464;DHT22;6804;48.774;9.174;2023-09-12T15:04:39;30.80;90.10
13464;DHT22;6804;48.774;9.174;2023-09-12T15:07:09;30.90;90.20
13464;DHT22;6804;48.774;9.174;2023-09-12T15:09:43;30.90;89.80
13464;DHT22;6804;48.774;9.174;2023-09-12T15:12:11;30.70;90.20
13464;DHT22;6804;48.774;9.174;2023-09-12T15:14:39;30.70;90.40
13464;DHT22;6804;48.774;9.174;2023-09-12T15:17:13;30.80;90.50
13464;DHT22;6804;48.774;9.174;2023-09-12T15:19:42;30.80;90.30
13464;DHT22;6804;48.774;9.174;2023-09-12T15:22:10;30.80;90.30
13464;DHT22;6804;48.774;9.174;2023-09-12T15:24:40;30.90;90.40
13464;DHT22;6804;48.774;9.174;2023-09-12T15:27:09;31.00;90.30
13464;DHT22;6804;48.774;9.174;2023-09-12T15:29:37;31.00;90.20
13464;DHT22;6804;48.774;9.174;2023-09-12T15:32:07;30.90;89.50
13464;DHT22;6804;48.774;9.174;2023-09-12T15:34:43;30.60;90.10
13464;DHT22;6804;48.774;9.174;2023-09-12T15:37:12;30.40;90.50
13464;DHT22;6804;48.774;9.174;2023-09-12T15:39:42;30.30;90.60
13464;DHT22;6804;48.774;9.174;2023-09-12T15:42:11;30.10;90.70
13464;DHT22;6804;48.774;9.174;2023-09-12T15:44:40;30.00;90.70
13464;DHT22;6804;48.774;9.174;2023-09-12T15:47:11;29.90;90.90
13464;DHT22;6804;48.774;9.174;2023-09-12T15:49:40;29.80;91.10
13464;DHT22;6804;48.774;9.174;2023-09-12T15:52:11;29.70;91.30
13464;DHT22;6804;48.774;9.174;2023-09-12T15:54:40;29.60;91.50
13464;DHT22;6804;48.774;9.174;2023-09-12T15:57:10;29.60;91.60
13464;DHT22;6804;48.774;9.174;2023-09-12T15:59:44;29.50;91.60
13464;DHT22;6804;48.774;9.174;2023-09-12T16:02:14;29.60;91.60
13464;DHT22;6804;48.774;9.174;2023-09-12T16:04:42;29.70;91.50
13464;DHT22;6804;48.774;9.174;2023-09-12T16:07:12;29.70;91.50